Terminal Aerodrome Forecast
Issued by NWS

Home | Current Version | Previous Version | Graphics & Text | Print | Product List | Glossary On
Versions: 1 2 3 4 5 6 7 8 9 10 11 12 13 14
000
FTUS43 KLSX 271720
TAFSUS
TAF
KSUS 271720Z 2718/2818 VRB05KT P6SM FEW040 SCT250
     FM280800 00000KT 2SM BR SCT250
     FM281300 17010KT P6SM SCT050 BKN250=

USA.gov is the U.S. government's official web portal to all federal, state and local government web resources and services.